RYS3063 EPKT-LGZA
Flight info
| Callsign | RYS3063 |
|---|---|
| Flight time | 2h 3m |
| Altitude | 37000 |
| Route | BABKO DCT DEMOP DCT NIPUR DCT PARAK DCT VAL/N0434F360 DCT AKIKA/N0435F370 DCT PITAS/N0421F330 UN732 KRK UT321 ASTUS |
| Aircraft | B738/M-SDE2E3FGHIRWXY/LB1 |
Departure
| Time | 2026-04-29 18:24 |
|---|---|
| Airport | Katowice Wojciech Korfanty International Airport (EPKT) |
Arrival
| Time | 2026-04-29 20:28 |
|---|---|
| Airport | Zakynthos International Airport Dionysios Solomos (LGZA) |
| Time | Latitude | Longitude | Altitude | Speed | Heading |
|---|---|---|---|---|---|
| 2026-04-29 17:58 | 50.47180 | 19.07342 | 992 ft | 0 kts | 180° |
| 2026-04-29 18:10 | 50.47191 | 19.07342 | 996 ft | 3 kts | 186° |
| 2026-04-29 18:11 | 50.47210 | 19.07349 | 996 ft | 3 kts | 205° |
| 2026-04-29 18:11 | 50.47226 | 19.07365 | 993 ft | 3 kts | 231° |
| 2026-04-29 18:11 | 50.47234 | 19.07389 | 996 ft | 2 kts | 265° |
| 2026-04-29 18:11 | 50.47235 | 19.07396 | 995 ft | 0 kts | 270° |
| 2026-04-29 18:18 | 50.47235 | 19.07395 | 995 ft | 1 kts | 270° |
| 2026-04-29 18:18 | 50.47235 | 19.07360 | 994 ft | 6 kts | 270° |
| 2026-04-29 18:18 | 50.47235 | 19.07262 | 988 ft | 12 kts | 270° |
| 2026-04-29 18:19 | 50.47235 | 19.07101 | 984 ft | 17 kts | 270° |
| 2026-04-29 18:19 | 50.47236 | 19.06887 | 990 ft | 21 kts | 270° |
| 2026-04-29 18:19 | 50.47236 | 19.06701 | 986 ft | 14 kts | 275° |
| 2026-04-29 18:19 | 50.47304 | 19.06625 | 984 ft | 13 kts | 360° |
| 2026-04-29 18:20 | 50.47395 | 19.06618 | 988 ft | 13 kts | 333° |
| 2026-04-29 18:20 | 50.47427 | 19.06492 | 982 ft | 13 kts | 275° |
| 2026-04-29 18:20 | 50.47429 | 19.06346 | 982 ft | 14 kts | 269° |
| 2026-04-29 18:20 | 50.47429 | 19.06188 | 982 ft | 15 kts | 270° |
| 2026-04-29 18:21 | 50.47434 | 19.06033 | 988 ft | 13 kts | 288° |
| 2026-04-29 18:21 | 50.47480 | 19.05978 | 988 ft | 7 kts | 351° |
| 2026-04-29 18:21 | 50.47504 | 19.05978 | 988 ft | 0 kts | 360° |
| 2026-04-29 18:22 | 50.47510 | 19.05978 | 991 ft | 2 kts | 359° |
| 2026-04-29 18:23 | 50.47541 | 19.05978 | 987 ft | 7 kts | 0° |
| 2026-04-29 18:23 | 50.47599 | 19.06016 | 983 ft | 11 kts | 60° |
| 2026-04-29 18:23 | 50.47604 | 19.06114 | 982 ft | 0 kts | 90° |
| 2026-04-29 18:24 | 50.47605 | 19.06400 | 984 ft | 63 kts | 90° |
| 2026-04-29 18:24 | 50.47602 | 19.07466 | 982 ft | 130 kts | 90° |
| 2026-04-29 18:24 | 50.47614 | 19.09142 | 1148 ft | 171 kts | 87° |
| 2026-04-29 18:24 | 50.47608 | 19.11155 | 1679 ft | 193 kts | 88° |
| 2026-04-29 18:25 | 50.47589 | 19.13300 | 2433 ft | 196 kts | 88° |
| 2026-04-29 18:25 | 50.47560 | 19.15581 | 2772 ft | 219 kts | 88° |
| 2026-04-29 18:25 | 50.47272 | 19.17985 | 3436 ft | 232 kts | 109° |
| 2026-04-29 18:25 | 50.46372 | 19.20123 | 4341 ft | 240 kts | 131° |
| 2026-04-29 18:26 | 50.45007 | 19.21814 | 4929 ft | 264 kts | 153° |
| 2026-04-29 18:26 | 50.43153 | 19.22314 | 5693 ft | 278 kts | 178° |
| 2026-04-29 18:26 | 50.41206 | 19.22259 | 6619 ft | 281 kts | 180° |
| 2026-04-29 18:26 | 50.39238 | 19.22179 | 7499 ft | 284 kts | 180° |
| 2026-04-29 18:27 | 50.37268 | 19.22127 | 8380 ft | 288 kts | 179° |
| 2026-04-29 18:27 | 50.35261 | 19.22099 | 9265 ft | 290 kts | 179° |
| 2026-04-29 18:27 | 50.33223 | 19.22082 | 10137 ft | 295 kts | 179° |
| 2026-04-29 18:27 | 50.31150 | 19.22118 | 10822 ft | 304 kts | 172° |
| 2026-04-29 18:28 | 50.29101 | 19.23200 | 11017 ft | 323 kts | 142° |
| 2026-04-29 18:28 | 50.27552 | 19.25733 | 11602 ft | 325 kts | 121° |
| 2026-04-29 18:28 | 50.26288 | 19.28687 | 12387 ft | 329 kts | 119° |
| 2026-04-29 18:28 | 50.25030 | 19.31693 | 13216 ft | 332 kts | 119° |
| 2026-04-29 18:29 | 50.23745 | 19.34720 | 14038 ft | 336 kts | 119° |
| 2026-04-29 18:29 | 50.22860 | 19.36775 | 14543 ft | 338 kts | 119° |
| 2026-04-29 18:29 | 50.21104 | 19.40816 | 15606 ft | 340 kts | 120° |
| 2026-04-29 18:29 | 50.19600 | 19.43702 | 16395 ft | 346 kts | 129° |
| 2026-04-29 18:30 | 50.17848 | 19.46317 | 17170 ft | 350 kts | 132° |
| 2026-04-29 18:30 | 50.16026 | 19.48867 | 17911 ft | 353 kts | 132° |
| 2026-04-29 18:30 | 50.14191 | 19.51440 | 18646 ft | 356 kts | 131° |
| 2026-04-29 18:30 | 50.13894 | 19.51860 | 18758 ft | 357 kts | 131° |
| 2026-04-29 18:31 | 50.12065 | 19.54484 | 19358 ft | 360 kts | 131° |
| 2026-04-29 18:31 | 50.10220 | 19.57174 | 19925 ft | 365 kts | 130° |
| 2026-04-29 18:31 | 50.08362 | 19.59896 | 20513 ft | 369 kts | 130° |
| 2026-04-29 18:31 | 50.06449 | 19.62595 | 21089 ft | 377 kts | 137° |
| 2026-04-29 18:32 | 50.04066 | 19.64463 | 21609 ft | 395 kts | 159° |
| 2026-04-29 18:32 | 49.98649 | 19.66263 | 22742 ft | 405 kts | 164° |
| 2026-04-29 18:32 | 49.95871 | 19.67132 | 23271 ft | 409 kts | 164° |
| 2026-04-29 18:33 | 49.93069 | 19.68052 | 23823 ft | 413 kts | 163° |
| 2026-04-29 18:33 | 49.90245 | 19.68953 | 24272 ft | 418 kts | 169° |
| 2026-04-29 18:33 | 49.87320 | 19.68841 | 24342 ft | 424 kts | 190° |
| 2026-04-29 18:33 | 49.84561 | 19.67243 | 24394 ft | 426 kts | 208° |
| 2026-04-29 18:34 | 49.81965 | 19.64986 | 24379 ft | 427 kts | 210° |
| 2026-04-29 18:34 | 49.80232 | 19.63431 | 24378 ft | 425 kts | 211° |
| 2026-04-29 18:34 | 49.76856 | 19.60412 | 24362 ft | 422 kts | 210° |
| 2026-04-29 18:34 | 49.74307 | 19.58172 | 24360 ft | 420 kts | 210° |
| 2026-04-29 18:35 | 49.71764 | 19.55966 | 24364 ft | 418 kts | 210° |
| 2026-04-29 18:35 | 49.69222 | 19.53778 | 24359 ft | 417 kts | 210° |
| 2026-04-29 18:35 | 49.66682 | 19.51599 | 24363 ft | 417 kts | 211° |
| 2026-04-29 18:35 | 49.64141 | 19.49431 | 24354 ft | 417 kts | 208° |
| 2026-04-29 18:36 | 49.61400 | 19.48008 | 24354 ft | 418 kts | 189° |
| 2026-04-29 18:36 | 49.58499 | 19.47959 | 24349 ft | 419 kts | 170° |
| 2026-04-29 18:36 | 49.55664 | 19.49005 | 24368 ft | 419 kts | 165° |
| 2026-04-29 18:36 | 49.52853 | 19.50212 | 24358 ft | 420 kts | 164° |
| 2026-04-29 18:37 | 49.50040 | 19.51452 | 24348 ft | 421 kts | 165° |
| 2026-04-29 18:37 | 49.47219 | 19.52691 | 24349 ft | 423 kts | 165° |
| 2026-04-29 18:37 | 49.44361 | 19.53929 | 24492 ft | 429 kts | 166° |
| 2026-04-29 18:37 | 49.41477 | 19.55161 | 24964 ft | 430 kts | 166° |
| 2026-04-29 18:38 | 49.38616 | 19.56369 | 25456 ft | 432 kts | 167° |
| 2026-04-29 18:38 | 49.35700 | 19.57592 | 25876 ft | 435 kts | 167° |
| 2026-04-29 18:38 | 49.32759 | 19.58818 | 26250 ft | 440 kts | 167° |
| 2026-04-29 18:38 | 49.29793 | 19.60052 | 26631 ft | 444 kts | 168° |
| 2026-04-29 18:39 | 49.26801 | 19.61294 | 27020 ft | 447 kts | 168° |
| 2026-04-29 18:39 | 49.23784 | 19.62545 | 27397 ft | 451 kts | 168° |
| 2026-04-29 18:39 | 49.20741 | 19.63806 | 27784 ft | 454 kts | 168° |
| 2026-04-29 18:39 | 49.17679 | 19.65074 | 28148 ft | 457 kts | 168° |
| 2026-04-29 18:40 | 49.14590 | 19.66271 | 28466 ft | 459 kts | 173° |
| 2026-04-29 18:40 | 49.11427 | 19.66927 | 28763 ft | 460 kts | 178° |
| 2026-04-29 18:40 | 49.08226 | 19.67399 | 29097 ft | 462 kts | 179° |
| 2026-04-29 18:40 | 49.05011 | 19.67819 | 29453 ft | 465 kts | 180° |
| 2026-04-29 18:41 | 48.95248 | 19.69140 | 30464 ft | 474 kts | 179° |
| 2026-04-29 18:41 | 48.91951 | 19.69624 | 30759 ft | 476 kts | 179° |
| 2026-04-29 18:42 | 48.88643 | 19.70121 | 31035 ft | 478 kts | 179° |
| 2026-04-29 18:42 | 48.85331 | 19.70625 | 31321 ft | 479 kts | 179° |
| 2026-04-29 18:42 | 48.82045 | 19.71128 | 31580 ft | 480 kts | 179° |
| 2026-04-29 18:42 | 48.78717 | 19.71636 | 31923 ft | 480 kts | 179° |
| 2026-04-29 18:43 | 48.75403 | 19.72141 | 32333 ft | 477 kts | 179° |
| 2026-04-29 18:43 | 48.72110 | 19.72643 | 32756 ft | 475 kts | 178° |
| 2026-04-29 18:43 | 48.68822 | 19.73141 | 33128 ft | 474 kts | 178° |
| 2026-04-29 18:43 | 48.65535 | 19.73636 | 33280 ft | 477 kts | 178° |
| 2026-04-29 18:44 | 48.58906 | 19.74629 | 33279 ft | 478 kts | 178° |
| 2026-04-29 18:44 | 48.52333 | 19.75619 | 33256 ft | 471 kts | 179° |
| 2026-04-29 18:45 | 48.45804 | 19.76596 | 33261 ft | 471 kts | 179° |
| 2026-04-29 18:45 | 48.39261 | 19.77569 | 33385 ft | 475 kts | 179° |
| 2026-04-29 18:46 | 48.35981 | 19.78057 | 33779 ft | 473 kts | 179° |
| 2026-04-29 18:46 | 48.32718 | 19.78543 | 34234 ft | 470 kts | 179° |
| 2026-04-29 18:46 | 48.29468 | 19.79028 | 34524 ft | 469 kts | 179° |
| 2026-04-29 18:46 | 48.26217 | 19.79510 | 34726 ft | 470 kts | 179° |
| 2026-04-29 18:47 | 48.22957 | 19.79992 | 34939 ft | 471 kts | 179° |
| 2026-04-29 18:47 | 48.19736 | 19.80468 | 35180 ft | 471 kts | 179° |
| 2026-04-29 18:47 | 48.16472 | 19.80950 | 35442 ft | 470 kts | 178° |
| 2026-04-29 18:47 | 48.13222 | 19.81430 | 35674 ft | 470 kts | 179° |
| 2026-04-29 18:48 | 48.09961 | 19.81911 | 35893 ft | 470 kts | 178° |
| 2026-04-29 18:48 | 48.06704 | 19.82390 | 36121 ft | 470 kts | 178° |
| 2026-04-29 18:48 | 48.03442 | 19.82870 | 36381 ft | 469 kts | 178° |
| 2026-04-29 18:48 | 48.00195 | 19.83347 | 36598 ft | 469 kts | 178° |
| 2026-04-29 18:49 | 47.96943 | 19.83824 | 36810 ft | 469 kts | 178° |
| 2026-04-29 18:49 | 47.93685 | 19.84301 | 37040 ft | 469 kts | 178° |
| 2026-04-29 18:49 | 47.90478 | 19.84770 | 37245 ft | 469 kts | 178° |
| 2026-04-29 18:49 | 47.87216 | 19.85246 | 37230 ft | 472 kts | 178° |
| 2026-04-29 18:50 | 47.80667 | 19.86200 | 37234 ft | 472 kts | 178° |
| 2026-04-29 18:50 | 47.74162 | 19.87151 | 37232 ft | 466 kts | 179° |
| 2026-04-29 18:51 | 47.67729 | 19.88085 | 37241 ft | 463 kts | 179° |
| 2026-04-29 18:51 | 47.61348 | 19.89008 | 37238 ft | 461 kts | 179° |
| 2026-04-29 18:52 | 47.54961 | 19.89929 | 37227 ft | 461 kts | 179° |
| 2026-04-29 18:52 | 47.48576 | 19.90848 | 37234 ft | 461 kts | 179° |
| 2026-04-29 18:53 | 47.42208 | 19.91762 | 37231 ft | 463 kts | 179° |
| 2026-04-29 18:53 | 47.35789 | 19.92681 | 37232 ft | 464 kts | 179° |
| 2026-04-29 18:54 | 47.29328 | 19.93605 | 37233 ft | 467 kts | 180° |
| 2026-04-29 18:54 | 47.23924 | 19.94376 | 37234 ft | 468 kts | 180° |
| 2026-04-29 18:55 | 47.16365 | 19.95452 | 37233 ft | 470 kts | 180° |
| 2026-04-29 18:55 | 47.09849 | 19.96378 | 37229 ft | 471 kts | 180° |
| 2026-04-29 18:56 | 47.04378 | 19.97153 | 37231 ft | 471 kts | 180° |
| 2026-04-29 18:56 | 46.97881 | 19.98072 | 37205 ft | 471 kts | 180° |
| 2026-04-29 18:57 | 46.91352 | 19.98993 | 37206 ft | 470 kts | 180° |
| 2026-04-29 18:57 | 46.84848 | 19.99908 | 37199 ft | 468 kts | 180° |
| 2026-04-29 18:58 | 46.78389 | 20.00815 | 37194 ft | 467 kts | 180° |
| 2026-04-29 18:58 | 46.71920 | 20.01720 | 37199 ft | 465 kts | 180° |
| 2026-04-29 18:59 | 46.65511 | 20.02614 | 37195 ft | 464 kts | 180° |
| 2026-04-29 18:59 | 46.59069 | 20.03511 | 37192 ft | 463 kts | 180° |
| 2026-04-29 19:00 | 46.52654 | 20.04402 | 37193 ft | 463 kts | 181° |
| 2026-04-29 19:00 | 46.46245 | 20.05290 | 37193 ft | 463 kts | 181° |
| 2026-04-29 19:01 | 46.39818 | 20.06178 | 37190 ft | 463 kts | 181° |
| 2026-04-29 19:01 | 46.33435 | 20.07059 | 37185 ft | 464 kts | 181° |
| 2026-04-29 19:02 | 46.26998 | 20.07945 | 37177 ft | 465 kts | 181° |
| 2026-04-29 19:02 | 46.20553 | 20.08830 | 37186 ft | 466 kts | 181° |
| 2026-04-29 19:03 | 46.14110 | 20.09276 | 37183 ft | 458 kts | 191° |
| 2026-04-29 19:03 | 46.07771 | 20.08486 | 37184 ft | 457 kts | 192° |
| 2026-04-29 19:04 | 46.01431 | 20.07615 | 37186 ft | 459 kts | 192° |
| 2026-04-29 19:04 | 45.95066 | 20.06791 | 37181 ft | 460 kts | 192° |
| 2026-04-29 19:05 | 45.88686 | 20.06005 | 37184 ft | 460 kts | 192° |
| 2026-04-29 19:05 | 45.82301 | 20.05231 | 37179 ft | 460 kts | 192° |
| 2026-04-29 19:06 | 45.75922 | 20.04461 | 37179 ft | 460 kts | 192° |
| 2026-04-29 19:07 | 45.66379 | 20.03308 | 37177 ft | 458 kts | 192° |
| 2026-04-29 19:07 | 45.60046 | 20.02544 | 37181 ft | 456 kts | 192° |
| 2026-04-29 19:08 | 45.53732 | 20.01784 | 37178 ft | 454 kts | 192° |
| 2026-04-29 19:08 | 45.47444 | 20.01029 | 37185 ft | 453 kts | 192° |
| 2026-04-29 19:09 | 45.41179 | 20.00279 | 37186 ft | 451 kts | 192° |
| 2026-04-29 19:09 | 45.34932 | 19.99532 | 37191 ft | 450 kts | 192° |
| 2026-04-29 19:10 | 45.28704 | 19.98789 | 37186 ft | 449 kts | 192° |
| 2026-04-29 19:10 | 45.22487 | 19.98048 | 37200 ft | 448 kts | 192° |
| 2026-04-29 19:11 | 45.16275 | 19.97309 | 37206 ft | 448 kts | 192° |
| 2026-04-29 19:11 | 45.10061 | 19.96572 | 37196 ft | 448 kts | 192° |
| 2026-04-29 19:12 | 45.03850 | 19.95837 | 37203 ft | 448 kts | 192° |
| 2026-04-29 19:12 | 44.97673 | 19.95108 | 37206 ft | 449 kts | 192° |
| 2026-04-29 19:13 | 44.91446 | 19.94375 | 37209 ft | 449 kts | 192° |
| 2026-04-29 19:13 | 44.85216 | 19.93643 | 37207 ft | 449 kts | 192° |
| 2026-04-29 19:14 | 44.78981 | 19.92912 | 37209 ft | 450 kts | 192° |
| 2026-04-29 19:14 | 44.72742 | 19.92182 | 37208 ft | 450 kts | 192° |
| 2026-04-29 19:15 | 44.66497 | 19.91454 | 37212 ft | 450 kts | 192° |
| 2026-04-29 19:15 | 44.60256 | 19.90727 | 37213 ft | 450 kts | 192° |
| 2026-04-29 19:16 | 44.54011 | 19.90001 | 37214 ft | 450 kts | 192° |
| 2026-04-29 19:16 | 44.47771 | 19.89277 | 37216 ft | 450 kts | 192° |
| 2026-04-29 19:17 | 44.41540 | 19.88556 | 37214 ft | 449 kts | 192° |
| 2026-04-29 19:17 | 44.35318 | 19.87837 | 37215 ft | 448 kts | 192° |
| 2026-04-29 19:18 | 44.29121 | 19.87064 | 37209 ft | 446 kts | 194° |
| 2026-04-29 19:18 | 44.22969 | 19.86096 | 37217 ft | 444 kts | 194° |
| 2026-04-29 19:19 | 44.16828 | 19.85101 | 37204 ft | 444 kts | 194° |
| 2026-04-29 19:19 | 44.10694 | 19.84132 | 37213 ft | 443 kts | 194° |
| 2026-04-29 19:20 | 44.04573 | 19.83181 | 37211 ft | 442 kts | 194° |
| 2026-04-29 19:20 | 43.98456 | 19.82238 | 37209 ft | 442 kts | 194° |
| 2026-04-29 19:21 | 43.92346 | 19.81297 | 37199 ft | 441 kts | 194° |
| 2026-04-29 19:21 | 43.86246 | 19.80359 | 37201 ft | 441 kts | 194° |
| 2026-04-29 19:22 | 43.80151 | 19.79424 | 37201 ft | 441 kts | 194° |
| 2026-04-29 19:22 | 43.74054 | 19.78490 | 37198 ft | 441 kts | 193° |
| 2026-04-29 19:23 | 43.67944 | 19.77556 | 37180 ft | 442 kts | 193° |
| 2026-04-29 19:23 | 43.61831 | 19.76624 | 37179 ft | 442 kts | 193° |
| 2026-04-29 19:24 | 43.55709 | 19.75692 | 37174 ft | 443 kts | 193° |
| 2026-04-29 19:24 | 43.49581 | 19.74764 | 37171 ft | 443 kts | 193° |
| 2026-04-29 19:25 | 43.43455 | 19.73834 | 37142 ft | 443 kts | 193° |
| 2026-04-29 19:25 | 43.37381 | 19.72915 | 37154 ft | 443 kts | 193° |
| 2026-04-29 19:26 | 43.31251 | 19.71990 | 37146 ft | 443 kts | 193° |
| 2026-04-29 19:26 | 43.25124 | 19.71067 | 37149 ft | 443 kts | 193° |
| 2026-04-29 19:27 | 43.18998 | 19.70148 | 37143 ft | 442 kts | 193° |
| 2026-04-29 19:27 | 43.12897 | 19.69235 | 37128 ft | 440 kts | 193° |
| 2026-04-29 19:28 | 43.06806 | 19.68323 | 37097 ft | 440 kts | 193° |
| 2026-04-29 19:28 | 43.00716 | 19.67411 | 37115 ft | 440 kts | 193° |
| 2026-04-29 19:29 | 42.94621 | 19.66501 | 37110 ft | 440 kts | 193° |
| 2026-04-29 19:29 | 42.88527 | 19.65594 | 37094 ft | 441 kts | 193° |
| 2026-04-29 19:30 | 42.82421 | 19.64687 | 37088 ft | 441 kts | 193° |
| 2026-04-29 19:30 | 42.76309 | 19.63781 | 37086 ft | 442 kts | 193° |
| 2026-04-29 19:31 | 42.70193 | 19.62877 | 37067 ft | 442 kts | 193° |
| 2026-04-29 19:31 | 42.64086 | 19.61975 | 37066 ft | 442 kts | 193° |
| 2026-04-29 19:32 | 42.57985 | 19.61075 | 37061 ft | 440 kts | 193° |
| 2026-04-29 19:32 | 42.51898 | 19.60424 | 37040 ft | 446 kts | 184° |
| 2026-04-29 19:33 | 42.45676 | 19.60982 | 37057 ft | 448 kts | 181° |
| 2026-04-29 19:33 | 42.39452 | 19.61657 | 37052 ft | 449 kts | 182° |
| 2026-04-29 19:34 | 42.33222 | 19.62297 | 37045 ft | 448 kts | 182° |
| 2026-04-29 19:34 | 42.26994 | 19.62898 | 37056 ft | 448 kts | 182° |
| 2026-04-29 19:35 | 42.20781 | 19.63483 | 37057 ft | 447 kts | 182° |
| 2026-04-29 19:35 | 42.14588 | 19.64062 | 37054 ft | 446 kts | 182° |
| 2026-04-29 19:36 | 42.08391 | 19.64641 | 37050 ft | 447 kts | 182° |
| 2026-04-29 19:36 | 42.02189 | 19.65219 | 37049 ft | 447 kts | 181° |
| 2026-04-29 19:37 | 41.95989 | 19.65797 | 37046 ft | 447 kts | 181° |
| 2026-04-29 19:37 | 41.89798 | 19.66372 | 37043 ft | 446 kts | 181° |
| 2026-04-29 19:38 | 41.83634 | 19.66946 | 37044 ft | 447 kts | 181° |
| 2026-04-29 19:38 | 41.77401 | 19.67524 | 37050 ft | 449 kts | 181° |
| 2026-04-29 19:39 | 41.72218 | 19.68004 | 37063 ft | 449 kts | 181° |
| 2026-04-29 19:39 | 41.65970 | 19.68582 | 37060 ft | 449 kts | 181° |
| 2026-04-29 19:40 | 41.59739 | 19.69157 | 37066 ft | 449 kts | 181° |
| 2026-04-29 19:40 | 41.53510 | 19.69731 | 37074 ft | 448 kts | 181° |
| 2026-04-29 19:41 | 41.47315 | 19.70300 | 37071 ft | 448 kts | 181° |
| 2026-04-29 19:41 | 41.41088 | 19.70871 | 37075 ft | 447 kts | 181° |
| 2026-04-29 19:42 | 41.34880 | 19.71439 | 37074 ft | 447 kts | 181° |
| 2026-04-29 19:42 | 41.28679 | 19.72005 | 37077 ft | 446 kts | 181° |
| 2026-04-29 19:43 | 41.22511 | 19.72567 | 37067 ft | 446 kts | 181° |
| 2026-04-29 19:43 | 41.16304 | 19.73132 | 37066 ft | 446 kts | 181° |
| 2026-04-29 19:44 | 41.10098 | 19.73696 | 37065 ft | 446 kts | 181° |
| 2026-04-29 19:44 | 41.03940 | 19.74254 | 37065 ft | 446 kts | 181° |
| 2026-04-29 19:45 | 40.97741 | 19.74815 | 37065 ft | 446 kts | 181° |
| 2026-04-29 19:45 | 40.91546 | 19.75374 | 37066 ft | 446 kts | 181° |
| 2026-04-29 19:46 | 40.85348 | 19.75933 | 37063 ft | 447 kts | 180° |
| 2026-04-29 19:46 | 40.79140 | 19.76492 | 37066 ft | 447 kts | 180° |
| 2026-04-29 19:47 | 40.72933 | 19.77049 | 37066 ft | 447 kts | 180° |
| 2026-04-29 19:47 | 40.66715 | 19.77606 | 37068 ft | 448 kts | 180° |
| 2026-04-29 19:48 | 40.60534 | 19.78159 | 37064 ft | 448 kts | 180° |
| 2026-04-29 19:48 | 40.54311 | 19.78716 | 37071 ft | 448 kts | 180° |
| 2026-04-29 19:49 | 40.48091 | 19.79270 | 37051 ft | 447 kts | 180° |
| 2026-04-29 19:49 | 40.41884 | 19.79822 | 37082 ft | 447 kts | 180° |
| 2026-04-29 19:50 | 40.35692 | 19.80372 | 37072 ft | 447 kts | 180° |
| 2026-04-29 19:50 | 40.29482 | 19.80923 | 37085 ft | 447 kts | 180° |
| 2026-04-29 19:51 | 40.23257 | 19.81474 | 37085 ft | 448 kts | 180° |
| 2026-04-29 19:51 | 40.17029 | 19.82023 | 37072 ft | 448 kts | 180° |
| 2026-04-29 19:52 | 40.10795 | 19.82573 | 37071 ft | 449 kts | 180° |
| 2026-04-29 19:52 | 40.04553 | 19.83122 | 37072 ft | 449 kts | 180° |
| 2026-04-29 19:53 | 39.99397 | 19.83576 | 37069 ft | 448 kts | 180° |
| 2026-04-29 19:53 | 39.94078 | 19.84043 | 37074 ft | 447 kts | 180° |
| 2026-04-29 19:54 | 39.84958 | 19.86761 | 37091 ft | 454 kts | 161° |
| 2026-04-29 19:54 | 39.79094 | 19.89824 | 37084 ft | 454 kts | 161° |
| 2026-04-29 19:55 | 39.73224 | 19.92852 | 37065 ft | 454 kts | 162° |
| 2026-04-29 19:55 | 39.67335 | 19.95825 | 37077 ft | 454 kts | 162° |
| 2026-04-29 19:56 | 39.61446 | 19.98776 | 37072 ft | 454 kts | 162° |
| 2026-04-29 19:56 | 39.55587 | 20.01709 | 37075 ft | 454 kts | 162° |
| 2026-04-29 19:57 | 39.50645 | 20.04181 | 37074 ft | 455 kts | 162° |
| 2026-04-29 19:57 | 39.46729 | 20.06128 | 36970 ft | 456 kts | 163° |
| 2026-04-29 19:57 | 39.43678 | 20.07234 | 36588 ft | 452 kts | 173° |
| 2026-04-29 19:58 | 39.40603 | 20.07687 | 36254 ft | 441 kts | 181° |
| 2026-04-29 19:58 | 39.37550 | 20.07846 | 35875 ft | 436 kts | 181° |
| 2026-04-29 19:58 | 39.34528 | 20.07974 | 35481 ft | 433 kts | 181° |
| 2026-04-29 19:58 | 39.31524 | 20.08106 | 35087 ft | 430 kts | 181° |
| 2026-04-29 19:59 | 39.28544 | 20.08252 | 34695 ft | 427 kts | 181° |
| 2026-04-29 19:59 | 39.25587 | 20.08410 | 34313 ft | 424 kts | 181° |
| 2026-04-29 19:59 | 39.22634 | 20.08578 | 33899 ft | 422 kts | 181° |
| 2026-04-29 19:59 | 39.19707 | 20.08749 | 33466 ft | 419 kts | 180° |
| 2026-04-29 20:00 | 39.16834 | 20.08918 | 33078 ft | 416 kts | 180° |
| 2026-04-29 20:00 | 39.13950 | 20.09088 | 32680 ft | 412 kts | 180° |
| 2026-04-29 20:00 | 39.11093 | 20.09256 | 32305 ft | 409 kts | 180° |
| 2026-04-29 20:00 | 39.08265 | 20.09421 | 31934 ft | 406 kts | 180° |
| 2026-04-29 20:01 | 39.05456 | 20.09585 | 31574 ft | 403 kts | 180° |
| 2026-04-29 20:01 | 39.02659 | 20.09748 | 31215 ft | 400 kts | 180° |
| 2026-04-29 20:01 | 38.99885 | 20.09910 | 30852 ft | 397 kts | 180° |
| 2026-04-29 20:01 | 38.97131 | 20.10070 | 30495 ft | 394 kts | 180° |
| 2026-04-29 20:02 | 38.94406 | 20.10227 | 30253 ft | 389 kts | 180° |
| 2026-04-29 20:02 | 38.91716 | 20.10380 | 29875 ft | 386 kts | 181° |
| 2026-04-29 20:02 | 38.89052 | 20.10529 | 29530 ft | 381 kts | 181° |
| 2026-04-29 20:02 | 38.87301 | 20.10627 | 29265 ft | 379 kts | 181° |
| 2026-04-29 20:03 | 38.83800 | 20.10823 | 28788 ft | 374 kts | 181° |
| 2026-04-29 20:03 | 38.81204 | 20.10968 | 28422 ft | 372 kts | 181° |
| 2026-04-29 20:03 | 38.78634 | 20.11112 | 28055 ft | 369 kts | 181° |
| 2026-04-29 20:03 | 38.76079 | 20.11254 | 27690 ft | 366 kts | 181° |
| 2026-04-29 20:04 | 38.73543 | 20.11396 | 27332 ft | 363 kts | 181° |
| 2026-04-29 20:04 | 38.71026 | 20.11536 | 26980 ft | 361 kts | 181° |
| 2026-04-29 20:04 | 38.68558 | 20.11674 | 26630 ft | 359 kts | 181° |
| 2026-04-29 20:04 | 38.66074 | 20.11813 | 26280 ft | 356 kts | 181° |
| 2026-04-29 20:05 | 38.63603 | 20.11950 | 25934 ft | 354 kts | 181° |
| 2026-04-29 20:05 | 38.61150 | 20.12087 | 25591 ft | 352 kts | 181° |
| 2026-04-29 20:05 | 38.58705 | 20.12223 | 25254 ft | 350 kts | 181° |
| 2026-04-29 20:05 | 38.56274 | 20.12358 | 24908 ft | 349 kts | 181° |
| 2026-04-29 20:06 | 38.53858 | 20.12492 | 24572 ft | 347 kts | 181° |
| 2026-04-29 20:06 | 38.51446 | 20.12626 | 24237 ft | 346 kts | 181° |
| 2026-04-29 20:06 | 38.49049 | 20.12759 | 23904 ft | 345 kts | 181° |
| 2026-04-29 20:06 | 38.46654 | 20.12892 | 23543 ft | 343 kts | 181° |
| 2026-04-29 20:07 | 38.44270 | 20.13024 | 23145 ft | 342 kts | 181° |
| 2026-04-29 20:07 | 38.41902 | 20.13156 | 22782 ft | 340 kts | 181° |
| 2026-04-29 20:07 | 38.39553 | 20.13200 | 22512 ft | 334 kts | 184° |
| 2026-04-29 20:07 | 38.37247 | 20.13117 | 22200 ft | 331 kts | 185° |
| 2026-04-29 20:08 | 38.34958 | 20.12995 | 21886 ft | 328 kts | 186° |
| 2026-04-29 20:08 | 38.33421 | 20.12910 | 21660 ft | 327 kts | 186° |
| 2026-04-29 20:08 | 38.30424 | 20.12750 | 21223 ft | 324 kts | 185° |
| 2026-04-29 20:08 | 38.28173 | 20.12637 | 20900 ft | 323 kts | 185° |
| 2026-04-29 20:09 | 38.25937 | 20.12530 | 20577 ft | 321 kts | 185° |
| 2026-04-29 20:09 | 38.23708 | 20.12427 | 20251 ft | 320 kts | 185° |
| 2026-04-29 20:09 | 38.21487 | 20.12325 | 19932 ft | 319 kts | 185° |
| 2026-04-29 20:09 | 38.19268 | 20.12225 | 19606 ft | 318 kts | 185° |
| 2026-04-29 20:10 | 38.17058 | 20.12126 | 19287 ft | 317 kts | 185° |
| 2026-04-29 20:10 | 38.14859 | 20.12028 | 18968 ft | 316 kts | 185° |
| 2026-04-29 20:10 | 38.12690 | 20.11931 | 18654 ft | 315 kts | 185° |
| 2026-04-29 20:10 | 38.10471 | 20.11832 | 18312 ft | 315 kts | 185° |
| 2026-04-29 20:11 | 38.08304 | 20.11735 | 17945 ft | 314 kts | 185° |
| 2026-04-29 20:11 | 38.06120 | 20.11638 | 17612 ft | 313 kts | 184° |
| 2026-04-29 20:11 | 38.03948 | 20.11542 | 17284 ft | 311 kts | 184° |
| 2026-04-29 20:11 | 38.01793 | 20.11446 | 16963 ft | 310 kts | 184° |
| 2026-04-29 20:12 | 37.99643 | 20.11351 | 16651 ft | 308 kts | 184° |
| 2026-04-29 20:12 | 37.97507 | 20.11378 | 16320 ft | 309 kts | 171° |
| 2026-04-29 20:12 | 37.95549 | 20.12438 | 16066 ft | 309 kts | 144° |
| 2026-04-29 20:12 | 37.94139 | 20.14467 | 15755 ft | 309 kts | 118° |
| 2026-04-29 20:13 | 37.93529 | 20.17051 | 15451 ft | 307 kts | 93° |
| 2026-04-29 20:13 | 37.93591 | 20.18831 | 15252 ft | 305 kts | 77° |
| 2026-04-29 20:13 | 37.94491 | 20.22213 | 14851 ft | 302 kts | 68° |
| 2026-04-29 20:13 | 37.95241 | 20.24702 | 14524 ft | 303 kts | 71° |
| 2026-04-29 20:14 | 37.95501 | 20.27339 | 14208 ft | 303 kts | 95° |
| 2026-04-29 20:14 | 37.94996 | 20.29903 | 13934 ft | 302 kts | 112° |
| 2026-04-29 20:14 | 37.94172 | 20.32366 | 13616 ft | 306 kts | 114° |
| 2026-04-29 20:14 | 37.93305 | 20.34844 | 13287 ft | 309 kts | 114° |
| 2026-04-29 20:15 | 37.92425 | 20.37356 | 12953 ft | 313 kts | 114° |
| 2026-04-29 20:15 | 37.91547 | 20.39882 | 12615 ft | 312 kts | 114° |
| 2026-04-29 20:15 | 37.90681 | 20.42393 | 12287 ft | 310 kts | 114° |
| 2026-04-29 20:15 | 37.89824 | 20.44890 | 11961 ft | 309 kts | 114° |
| 2026-04-29 20:16 | 37.88974 | 20.47377 | 11642 ft | 307 kts | 114° |
| 2026-04-29 20:16 | 37.88128 | 20.49848 | 11339 ft | 305 kts | 114° |
| 2026-04-29 20:16 | 37.87288 | 20.52300 | 11024 ft | 303 kts | 114° |
| 2026-04-29 20:16 | 37.86449 | 20.54740 | 10715 ft | 302 kts | 114° |
| 2026-04-29 20:17 | 37.85603 | 20.57162 | 10416 ft | 300 kts | 114° |
| 2026-04-29 20:17 | 37.84761 | 20.59563 | 10195 ft | 295 kts | 114° |
| 2026-04-29 20:17 | 37.83930 | 20.61906 | 9981 ft | 291 kts | 117° |
| 2026-04-29 20:17 | 37.82616 | 20.63765 | 9631 ft | 289 kts | 151° |
| 2026-04-29 20:18 | 37.80718 | 20.64387 | 9341 ft | 283 kts | 186° |
| 2026-04-29 20:18 | 37.78837 | 20.63778 | 9088 ft | 278 kts | 198° |
| 2026-04-29 20:18 | 37.76952 | 20.63233 | 8777 ft | 278 kts | 189° |
| 2026-04-29 20:18 | 37.75021 | 20.63049 | 8497 ft | 279 kts | 181° |
| 2026-04-29 20:19 | 37.73087 | 20.63160 | 8217 ft | 279 kts | 175° |
| 2026-04-29 20:19 | 37.71160 | 20.63501 | 7870 ft | 281 kts | 170° |
| 2026-04-29 20:19 | 37.69260 | 20.64053 | 7574 ft | 281 kts | 165° |
| 2026-04-29 20:19 | 37.67405 | 20.64820 | 7282 ft | 280 kts | 160° |
| 2026-04-29 20:20 | 37.65622 | 20.65806 | 6995 ft | 280 kts | 154° |
| 2026-04-29 20:20 | 37.63932 | 20.67004 | 6700 ft | 279 kts | 148° |
| 2026-04-29 20:20 | 37.62343 | 20.68407 | 6405 ft | 278 kts | 142° |
| 2026-04-29 20:20 | 37.60877 | 20.69990 | 6102 ft | 277 kts | 137° |
| 2026-04-29 20:21 | 37.59545 | 20.71731 | 5812 ft | 275 kts | 131° |
| 2026-04-29 20:21 | 37.58359 | 20.73609 | 5526 ft | 274 kts | 126° |
| 2026-04-29 20:21 | 37.57322 | 20.75610 | 5241 ft | 272 kts | 121° |
| 2026-04-29 20:21 | 37.56424 | 20.77702 | 4963 ft | 271 kts | 116° |
| 2026-04-29 20:22 | 37.55904 | 20.79128 | 4807 ft | 269 kts | 113° |
| 2026-04-29 20:22 | 37.55265 | 20.81330 | 4562 ft | 266 kts | 107° |
| 2026-04-29 20:22 | 37.54820 | 20.83577 | 4324 ft | 260 kts | 101° |
| 2026-04-29 20:22 | 37.54566 | 20.85791 | 4085 ft | 251 kts | 95° |
| 2026-04-29 20:23 | 37.54477 | 20.87944 | 3888 ft | 241 kts | 90° |
| 2026-04-29 20:23 | 37.54526 | 20.90015 | 3685 ft | 232 kts | 85° |
| 2026-04-29 20:23 | 37.54697 | 20.92020 | 3511 ft | 229 kts | 81° |
| 2026-04-29 20:23 | 37.55220 | 20.93860 | 3312 ft | 221 kts | 50° |
| 2026-04-29 20:24 | 37.56449 | 20.94872 | 3055 ft | 211 kts | 8° |
| 2026-04-29 20:24 | 37.57839 | 20.94643 | 2913 ft | 195 kts | 340° |
| 2026-04-29 20:24 | 37.59106 | 20.94133 | 2772 ft | 189 kts | 342° |
| 2026-04-29 20:24 | 37.60347 | 20.93656 | 2615 ft | 184 kts | 342° |
| 2026-04-29 20:25 | 37.61559 | 20.93169 | 2473 ft | 183 kts | 341° |
| 2026-04-29 20:25 | 37.62787 | 20.92715 | 2313 ft | 186 kts | 343° |
| 2026-04-29 20:25 | 37.64037 | 20.92276 | 2140 ft | 186 kts | 343° |
| 2026-04-29 20:25 | 37.65278 | 20.91845 | 1912 ft | 181 kts | 343° |
| 2026-04-29 20:26 | 37.66458 | 20.91437 | 1668 ft | 171 kts | 344° |
| 2026-04-29 20:26 | 37.67566 | 20.91053 | 1463 ft | 157 kts | 343° |
| 2026-04-29 20:26 | 37.68570 | 20.90705 | 1239 ft | 144 kts | 343° |
| 2026-04-29 20:26 | 37.69528 | 20.90372 | 1098 ft | 140 kts | 344° |
| 2026-04-29 20:27 | 37.70479 | 20.90043 | 880 ft | 142 kts | 344° |
| 2026-04-29 20:27 | 37.71105 | 20.89828 | 798 ft | 142 kts | 345° |
| 2026-04-29 20:27 | 37.72402 | 20.89391 | 491 ft | 144 kts | 344° |
| 2026-04-29 20:27 | 37.73350 | 20.89057 | 277 ft | 143 kts | 346° |
| 2026-04-29 20:28 | 37.74310 | 20.88713 | 58 ft | 142 kts | 344° |
| 2026-04-29 20:28 | 37.75198 | 20.88389 | 18 ft | 111 kts | 343° |
| 2026-04-29 20:28 | 37.75691 | 20.88203 | 22 ft | 34 kts | 343° |
| 2026-04-29 20:28 | 37.75883 | 20.88131 | 21 ft | 23 kts | 343° |
| 2026-04-29 20:29 | 37.76010 | 20.88099 | 20 ft | 12 kts | 24° |
| 2026-04-29 20:29 | 37.76045 | 20.88053 | 19 ft | 12 kts | 217° |
| 2026-04-29 20:29 | 37.75976 | 20.88075 | 20 ft | 10 kts | 153° |
| 2026-04-29 20:29 | 37.75908 | 20.88119 | 21 ft | 12 kts | 156° |
| 2026-04-29 20:30 | 37.75818 | 20.88156 | 22 ft | 15 kts | 165° |
| 2026-04-29 20:30 | 37.75707 | 20.88196 | 22 ft | 18 kts | 163° |
| 2026-04-29 20:30 | 37.75577 | 20.88245 | 21 ft | 19 kts | 163° |
| 2026-04-29 20:30 | 37.75494 | 20.88295 | 20 ft | 6 kts | 127° |
| 2026-04-29 20:31 | 37.75478 | 20.88342 | 20 ft | 6 kts | 107° |
| 2026-04-29 20:31 | 37.75468 | 20.88395 | 21 ft | 7 kts | 93° |
| 2026-04-29 20:31 | 37.75479 | 20.88457 | 20 ft | 7 kts | 73° |
| 2026-04-29 20:31 | 37.75485 | 20.88483 | 20 ft | 3 kts | 73° |
| 2026-04-29 20:32 | 37.75487 | 20.88491 | 20 ft | 0 kts | 73° |